Terminal Aerodrome Forecast
Issued by NWS Cleveland, OH

Home | Current Version | Previous Version | Graphics & Text | Print | Product List | Glossary On
Versions: 1 2 3 4 5 6 7 8 9 10 11 12 13 14 15 16 17 18 19 20 21 22 23 24
655
FTUS41 KCLE 210344 AAB
TAFTOL
TAF AMD
KTOL 210344Z 2104/2124 18003KT 2SM BR OVC015
      TEMPO 2104/2107 3/4SM BR
     FM210700 18005KT 1SM BR OVC006
      TEMPO 2109/2113 1/2SM FG OVC002
     FM211500 18008KT 5SM BR OVC015
     FM211800 19010KT P6SM BKN035=

USA.gov is the U.S. government's official web portal to all federal, state and local government web resources and services.